createdAt,value
2022-08-24T00:00:18.039Z,20.77
2022-08-24T00:02:44.999Z,20.75
2022-08-24T00:05:14.708Z,20.69
2022-08-24T00:07:41.799Z,20.71
2022-08-24T00:10:10.697Z,20.74
2022-08-24T00:12:37.539Z,20.76
2022-08-24T00:15:06.233Z,20.70
2022-08-24T00:17:34.222Z,20.69
2022-08-24T00:20:01.110Z,20.70
2022-08-24T00:22:28.948Z,20.74
2022-08-24T00:24:56.753Z,20.77
2022-08-24T00:27:23.378Z,20.75
2022-08-24T00:29:50.076Z,20.74
2022-08-24T00:32:16.682Z,20.69
2022-08-24T00:34:58.928Z,20.68
2022-08-24T00:37:28.610Z,20.69
2022-08-24T00:39:56.334Z,20.74
2022-08-24T00:42:24.202Z,20.76
2022-08-24T00:44:50.942Z,20.75
2022-08-24T00:47:23.940Z,20.76
2022-08-24T00:49:54.554Z,20.75
2022-08-24T00:52:38.911Z,20.69
2022-08-24T00:55:15.122Z,20.68
2022-08-24T00:57:45.523Z,20.67
2022-08-24T01:00:19.105Z,20.68
2022-08-24T01:02:48.839Z,20.69
2022-08-24T01:05:19.102Z,20.69
2022-08-24T01:07:49.285Z,20.68
2022-08-24T01:10:19.726Z,20.68
2022-08-24T01:12:59.912Z,20.68
2022-08-24T01:15:30.819Z,20.58
2022-08-24T01:18:16.934Z,20.50
2022-08-24T01:20:49.374Z,20.51
2022-08-24T01:23:36.464Z,20.49
2022-08-24T01:26:04.383Z,20.46
2022-08-24T01:28:31.288Z,20.47
2022-08-24T01:30:59.893Z,20.40
2022-08-24T01:33:31.388Z,20.39
2022-08-24T01:36:04.587Z,20.38
2022-08-24T01:38:33.005Z,20.37
2022-08-24T01:41:02.407Z,20.31
2022-08-24T01:43:29.757Z,20.21
2022-08-24T01:45:57.800Z,20.17
2022-08-24T01:48:24.647Z,20.08
2022-08-24T01:50:53.073Z,20.05
2022-08-24T01:53:21.674Z,20.04
2022-08-24T01:55:48.828Z,20.05
2022-08-24T01:58:15.868Z,20.05
2022-08-24T02:00:44.590Z,20.02
2022-08-24T02:03:13.300Z,19.99
2022-08-24T02:05:40.455Z,19.94
2022-08-24T02:08:08.956Z,19.88
2022-08-24T02:10:35.603Z,19.86
2022-08-24T02:13:04.327Z,19.88
2022-08-24T02:15:40.189Z,19.86
2022-08-24T02:18:14.778Z,19.83
2022-08-24T02:20:43.325Z,19.83
2022-08-24T02:23:10.093Z,19.78
2022-08-24T02:25:36.889Z,19.79
2022-08-24T02:28:03.981Z,19.81
2022-08-24T02:30:32.097Z,19.76
2022-08-24T02:33:00.254Z,19.74
2022-08-24T02:35:29.738Z,19.71
2022-08-24T02:37:57.983Z,19.71
2022-08-24T02:40:26.757Z,19.73
2022-08-24T02:42:55.621Z,19.73
2022-08-24T02:45:22.296Z,19.71
2022-08-24T02:47:49.855Z,19.70
2022-08-24T02:50:18.735Z,19.65
2022-08-24T02:52:46.370Z,19.64
2022-08-24T02:55:19.828Z,19.61
2022-08-24T02:57:48.201Z,19.63
2022-08-24T03:00:17.800Z,19.62
2022-08-24T03:02:51.566Z,19.62
2022-08-24T03:05:18.973Z,19.60
2022-08-24T03:07:46.097Z,19.59
2022-08-24T03:10:13.215Z,19.60
2022-08-24T03:12:40.667Z,19.62
2022-08-24T03:15:10.543Z,19.60
2022-08-24T03:17:39.869Z,19.62
2022-08-24T03:20:11.714Z,19.62
2022-08-24T03:22:38.934Z,19.61
2022-08-24T03:25:06.553Z,19.59
2022-08-24T03:27:33.151Z,19.55
2022-08-24T03:29:59.821Z,19.56
2022-08-24T03:32:27.863Z,19.57
2022-08-24T03:34:55.872Z,19.52
2022-08-24T03:37:22.490Z,19.43
2022-08-24T03:39:51.029Z,19.42
2022-08-24T03:42:18.181Z,19.38
2022-08-24T03:44:44.817Z,19.39
2022-08-24T03:47:11.859Z,19.33
2022-08-24T03:49:39.741Z,19.40
2022-08-24T03:52:06.884Z,19.29
2022-08-24T03:54:34.275Z,19.26
2022-08-24T03:57:01.642Z,19.21
2022-08-24T03:59:28.859Z,19.21
2022-08-24T04:01:58.067Z,19.25
2022-08-24T04:04:27.122Z,19.23
2022-08-24T04:06:53.869Z,19.15
2022-08-24T04:09:23.698Z,19.14
2022-08-24T04:11:51.850Z,19.12
2022-08-24T04:14:27.381Z,19.09
2022-08-24T04:17:06.482Z,19.07
2022-08-24T04:19:57.329Z,19.16
2022-08-24T04:22:29.501Z,19.05
2022-08-24T04:24:56.337Z,19.11
2022-08-24T04:27:23.614Z,19.11
2022-08-24T04:29:51.024Z,19.11
2022-08-24T04:32:18.909Z,19.18
2022-08-24T04:34:47.133Z,19.15
2022-08-24T04:37:15.006Z,19.14
2022-08-24T04:39:42.622Z,19.21
2022-08-24T04:42:31.711Z,19.17
2022-08-24T04:45:00.668Z,19.13
2022-08-24T04:47:27.339Z,19.13
2022-08-24T04:49:53.997Z,19.16
2022-08-24T04:52:20.798Z,19.19
2022-08-24T04:54:47.417Z,19.25
2022-08-24T04:57:20.785Z,19.33
2022-08-24T04:59:48.448Z,19.33
2022-08-24T05:02:15.312Z,19.34
2022-08-24T05:04:44.497Z,19.33
2022-08-24T05:07:12.348Z,19.38
2022-08-24T05:09:41.075Z,19.43
2022-08-24T05:12:08.136Z,19.43
2022-08-24T05:14:38.936Z,19.40
2022-08-24T05:17:05.980Z,19.38
2022-08-24T05:19:37.394Z,19.41
2022-08-24T05:22:05.338Z,19.49
2022-08-24T05:24:32.070Z,19.60
2022-08-24T05:27:00.456Z,19.70
2022-08-24T05:29:29.147Z,19.69
2022-08-24T05:31:55.919Z,19.66
2022-08-24T05:34:23.986Z,19.71
2022-08-24T05:36:51.749Z,19.79
2022-08-24T05:39:32.801Z,19.81
2022-08-24T05:42:05.064Z,19.80
2022-08-24T05:44:37.852Z,19.83
2022-08-24T05:47:05.004Z,19.82
2022-08-24T05:49:31.843Z,19.87
2022-08-24T05:51:58.888Z,19.89
2022-08-24T05:54:26.910Z,19.94
2022-08-24T05:57:04.672Z,19.91
2022-08-24T05:59:37.796Z,19.98
2022-08-24T06:02:10.404Z,19.98
2022-08-24T06:04:38.199Z,19.90
2022-08-24T06:07:09.146Z,19.97
2022-08-24T06:09:39.454Z,20.06
2022-08-24T06:12:07.059Z,20.00
2022-08-24T06:14:34.604Z,20.07
2022-08-24T06:17:05.940Z,20.04
2022-08-24T06:19:33.163Z,20.06
2022-08-24T06:21:59.812Z,20.06
2022-08-24T06:24:47.486Z,20.16
2022-08-24T06:27:23.298Z,20.25
2022-08-24T06:29:59.223Z,20.32
2022-08-24T06:32:44.171Z,20.39
2022-08-24T06:35:20.872Z,20.49
2022-08-24T06:37:48.336Z,20.46
2022-08-24T06:40:15.815Z,20.42
2022-08-24T06:42:43.538Z,20.43
2022-08-24T06:45:22.311Z,20.46
2022-08-24T06:47:51.060Z,20.61
2022-08-24T06:50:19.566Z,20.64
2022-08-24T06:52:51.047Z,20.73
2022-08-24T06:55:17.938Z,20.84
2022-08-24T06:57:47.961Z,20.96
2022-08-24T07:00:17.748Z,21.04
2022-08-24T07:02:44.837Z,21.07
2022-08-24T07:05:11.794Z,20.99
2022-08-24T07:08:06.153Z,20.99
2022-08-24T07:10:34.407Z,21.05
2022-08-24T07:13:01.365Z,21.04
2022-08-24T07:15:28.165Z,21.08
2022-08-24T07:18:10.004Z,21.11
2022-08-24T07:20:39.608Z,21.09
2022-08-24T07:23:14.615Z,21.14
2022-08-24T07:25:46.240Z,21.29
2022-08-24T07:28:16.742Z,21.37
2022-08-24T07:30:44.173Z,21.43
2022-08-24T07:33:13.211Z,21.61
2022-08-24T07:35:41.561Z,21.68
2022-08-24T07:38:08.712Z,21.77
2022-08-24T07:41:01.664Z,21.93
2022-08-24T07:43:24.049Z,21.99
2022-08-24T07:45:51.753Z,21.91
2022-08-24T07:48:19.366Z,21.91
2022-08-24T07:50:47.121Z,21.92
2022-08-24T07:53:20.675Z,22.02
2022-08-24T07:55:54.058Z,22.10
2022-08-24T07:58:21.432Z,22.01
2022-08-24T08:00:49.506Z,22.08
2022-08-24T08:03:16.865Z,22.21
2022-08-24T08:05:45.145Z,22.29
2022-08-24T08:08:12.073Z,22.40
2022-08-24T08:10:40.730Z,22.46
2022-08-24T08:13:08.096Z,22.57
2022-08-24T08:15:36.241Z,22.56
2022-08-24T08:18:07.808Z,22.55
2022-08-24T08:20:40.412Z,22.63
2022-08-24T08:23:26.260Z,22.55
2022-08-24T08:25:59.400Z,22.73
2022-08-24T08:28:48.899Z,22.85
2022-08-24T08:31:15.932Z,22.97
2022-08-24T08:33:42.713Z,23.01
2022-08-24T08:36:15.075Z,22.88
2022-08-24T08:38:46.694Z,22.79
2022-08-24T08:41:25.970Z,22.76
2022-08-24T08:44:20.020Z,22.86
2022-08-24T08:46:52.993Z,22.99
2022-08-24T08:49:51.040Z,23.03
2022-08-24T08:52:27.234Z,23.06
2022-08-24T08:55:21.873Z,23.11
2022-08-24T08:58:18.585Z,23.19
2022-08-24T09:00:52.915Z,23.17
2022-08-24T09:04:03.532Z,23.10
2022-08-24T09:06:46.262Z,23.27
2022-08-24T09:09:34.990Z,23.41
2022-08-24T09:12:08.902Z,23.31
2022-08-24T09:14:59.974Z,23.42
2022-08-24T09:17:50.089Z,23.46
2022-08-24T09:20:29.052Z,23.50
2022-08-24T09:23:18.845Z,23.68
2022-08-24T09:25:58.374Z,23.81
2022-08-24T09:28:37.935Z,23.95
2022-08-24T09:34:23.593Z,24.03
2022-08-24T09:37:09.926Z,24.11
2022-08-24T09:39:58.673Z,24.08
2022-08-24T09:42:59.997Z,24.27
2022-08-24T09:45:58.414Z,24.46
2022-08-24T09:48:26.153Z,24.42
2022-08-24T09:50:58.557Z,24.51
2022-08-24T09:53:28.126Z,24.49
2022-08-24T09:56:27.988Z,24.43
2022-08-24T09:58:57.817Z,24.65
2022-08-24T10:02:02.822Z,24.79
2022-08-24T10:04:43.139Z,24.93
2022-08-24T10:07:22.437Z,24.81
2022-08-24T10:10:16.308Z,24.61
2022-08-24T10:13:18.497Z,24.75
2022-08-24T10:15:58.760Z,24.88
2022-08-24T10:18:48.331Z,24.90
2022-08-24T10:21:37.150Z,24.89
2022-08-24T10:24:06.473Z,25.04
2022-08-24T10:27:18.620Z,25.11
2022-08-24T10:30:28.228Z,25.04
2022-08-24T10:33:07.326Z,25.26
2022-08-24T10:35:48.514Z,25.47
2022-08-24T10:39:06.854Z,25.53
2022-08-24T10:42:06.429Z,25.63
2022-08-24T10:44:49.961Z,25.82
2022-08-24T10:47:23.206Z,25.92
2022-08-24T10:50:31.039Z,25.85
2022-08-24T10:53:19.005Z,25.90
2022-08-24T10:55:46.020Z,25.93
2022-08-24T10:58:40.879Z,25.84
2022-08-24T11:01:35.433Z,25.77
2022-08-24T11:04:09.875Z,25.75
2022-08-24T11:06:39.490Z,25.54
2022-08-24T11:09:19.738Z,25.81
2022-08-24T11:11:49.871Z,25.78
2022-08-24T11:14:16.419Z,25.98
2022-08-24T11:16:45.612Z,26.26
2022-08-24T11:19:25.930Z,26.51
2022-08-24T11:21:55.176Z,26.59
2022-08-24T11:24:39.960Z,26.74
2022-08-24T11:27:31.139Z,26.88
2022-08-24T11:30:02.273Z,27.04
2022-08-24T11:32:31.593Z,27.13
2022-08-24T11:35:16.240Z,27.18
2022-08-24T11:37:43.717Z,27.22
2022-08-24T11:40:10.833Z,27.29
2022-08-24T11:42:49.623Z,27.45
2022-08-24T11:45:25.873Z,27.43
2022-08-24T11:48:12.428Z,27.22
2022-08-24T11:50:57.004Z,27.24
2022-08-24T11:53:33.222Z,27.31
2022-08-24T11:56:00.645Z,27.27
2022-08-24T11:58:37.754Z,27.39
2022-08-24T12:01:35.280Z,27.56
2022-08-24T12:04:17.662Z,27.67
2022-08-24T12:07:20.299Z,27.70
2022-08-24T12:10:01.416Z,27.67
2022-08-24T12:12:28.024Z,27.77
2022-08-24T12:15:03.866Z,27.75
2022-08-24T12:17:51.768Z,27.83
2022-08-24T12:20:41.144Z,27.75
2022-08-24T12:23:15.162Z,27.79
2022-08-24T12:26:04.559Z,27.93
2022-08-24T12:28:44.060Z,28.08
2022-08-24T12:31:29.442Z,28.10
2022-08-24T12:34:01.981Z,28.14
2022-08-24T12:36:36.492Z,28.22
2022-08-24T12:39:10.946Z,28.24
2022-08-24T12:41:48.612Z,28.24
2022-08-24T12:44:17.211Z,28.30
2022-08-24T12:46:44.650Z,28.17
2022-08-24T12:49:50.665Z,28.32
2022-08-24T12:52:35.524Z,28.32
2022-08-24T12:55:19.676Z,28.35
2022-08-24T12:58:40.156Z,28.23
2022-08-24T13:01:26.961Z,28.35
2022-08-24T13:04:08.182Z,28.51
2022-08-24T13:06:42.624Z,28.67
2022-08-24T13:09:26.742Z,28.63
2022-08-24T13:11:55.932Z,28.65
2022-08-24T13:14:29.283Z,28.87
2022-08-24T13:16:56.321Z,28.85
2022-08-24T13:19:23.021Z,28.68
2022-08-24T13:21:59.036Z,28.28
2022-08-24T13:24:28.689Z,28.76
2022-08-24T13:26:57.389Z,28.89
2022-08-24T13:29:33.427Z,28.33
2022-08-24T13:32:01.683Z,27.72
2022-08-24T13:34:44.289Z,27.58
2022-08-24T13:37:18.684Z,26.78
2022-08-24T13:40:16.441Z,26.02
2022-08-24T13:43:27.261Z,26.13
2022-08-24T13:46:26.223Z,25.01
2022-08-24T13:49:01.521Z,25.61
2022-08-24T13:51:30.652Z,25.39
2022-08-24T13:54:03.777Z,25.38
2022-08-24T13:56:58.405Z,25.79
2022-08-24T13:59:55.843Z,25.70
2022-08-24T14:02:29.328Z,25.33
2022-08-24T14:05:12.849Z,25.32
2022-08-24T14:08:14.976Z,25.21
2022-08-24T14:10:48.654Z,25.97
2022-08-24T14:13:41.194Z,25.64
2022-08-24T14:16:45.369Z,25.19
2022-08-24T14:19:25.225Z,25.60
2022-08-24T14:22:24.244Z,25.52
2022-08-24T14:25:01.973Z,25.10
2022-08-24T14:27:40.777Z,24.48
2022-08-24T14:30:19.856Z,25.05
2022-08-24T14:32:58.688Z,24.96
2022-08-24T14:35:32.033Z,24.88
2022-08-24T14:38:28.937Z,24.92
2022-08-24T14:41:10.766Z,24.95
2022-08-24T14:43:55.910Z,24.84
2022-08-24T14:46:43.034Z,25.09
2022-08-24T14:49:42.229Z,24.83
2022-08-24T14:52:50.445Z,24.28
2022-08-24T14:55:32.065Z,24.62
2022-08-24T14:58:11.574Z,24.67
2022-08-24T15:00:52.825Z,24.69
2022-08-24T15:03:49.834Z,24.72
2022-08-24T15:06:39.627Z,24.18
2022-08-24T15:09:27.244Z,23.76
2022-08-24T15:12:10.783Z,23.85
2022-08-24T15:14:48.321Z,24.24
2022-08-24T15:17:23.309Z,24.35
2022-08-24T15:20:08.570Z,24.47
2022-08-24T15:23:02.213Z,24.96
2022-08-24T15:25:36.855Z,24.75
2022-08-24T15:28:08.394Z,23.88
2022-08-24T15:30:39.843Z,23.92
2022-08-24T15:33:09.436Z,24.25
2022-08-24T15:35:41.094Z,24.37
2022-08-24T15:38:29.261Z,24.61
2022-08-24T15:41:14.330Z,24.60
2022-08-24T15:44:01.087Z,24.38
2022-08-24T15:46:42.371Z,24.58
2022-08-24T15:49:21.009Z,24.45
2022-08-24T15:51:58.330Z,24.62
2022-08-24T15:54:25.514Z,24.85
2022-08-24T15:57:00.730Z,24.54
2022-08-24T15:59:39.528Z,24.74
2022-08-24T16:02:30.980Z,24.67
2022-08-24T16:05:09.416Z,24.81
2022-08-24T16:08:04.326Z,24.55
2022-08-24T16:10:33.324Z,24.51
2022-08-24T16:13:28.738Z,24.48
2022-08-24T16:16:09.353Z,24.21
2022-08-24T16:18:50.199Z,24.25
2022-08-24T16:21:45.225Z,24.18
2022-08-24T16:24:37.353Z,23.90
2022-08-24T16:27:03.989Z,24.26
2022-08-24T16:29:37.035Z,24.43
2022-08-24T16:32:26.701Z,24.63
2022-08-24T16:35:17.141Z,24.71
2022-08-24T16:37:43.752Z,24.58
2022-08-24T16:40:14.117Z,24.08
2022-08-24T16:42:41.557Z,23.87
2022-08-24T16:45:10.779Z,23.89
2022-08-24T16:47:37.668Z,23.95
2022-08-24T16:50:06.669Z,24.08
2022-08-24T16:52:33.528Z,24.26
2022-08-24T16:55:01.458Z,24.56
2022-08-24T16:57:31.743Z,24.90
2022-08-24T16:59:58.667Z,25.18
2022-08-24T17:02:28.487Z,24.97
2022-08-24T17:04:56.141Z,25.26
2022-08-24T17:07:31.831Z,25.89
2022-08-24T17:10:05.292Z,25.94
2022-08-24T17:12:32.007Z,25.83
2022-08-24T17:14:59.156Z,25.57
2022-08-24T17:17:26.021Z,25.21
2022-08-24T17:19:54.350Z,25.21
2022-08-24T17:22:23.144Z,24.71
2022-08-24T17:24:50.370Z,25.05
2022-08-24T17:27:20.881Z,25.02
2022-08-24T17:29:48.455Z,24.76
2022-08-24T17:32:16.310Z,24.79
2022-08-24T17:34:43.000Z,24.52
2022-08-24T17:37:10.416Z,24.30
2022-08-24T17:39:37.470Z,24.17
2022-08-24T17:42:12.704Z,23.82
2022-08-24T17:44:51.004Z,23.78
2022-08-24T17:47:18.882Z,23.40
2022-08-24T17:49:46.853Z,23.09
2022-08-24T17:52:17.157Z,23.05
2022-08-24T17:54:43.780Z,22.93
2022-08-24T17:57:13.154Z,23.02
2022-08-24T17:59:39.886Z,23.02
2022-08-24T18:02:09.947Z,22.94
2022-08-24T18:04:38.228Z,22.92
2022-08-24T18:07:11.694Z,22.82
2022-08-24T18:09:54.818Z,22.84
2022-08-24T18:12:25.081Z,22.86
2022-08-24T18:14:52.767Z,22.53
2022-08-24T18:17:23.036Z,22.39
2022-08-24T18:19:50.897Z,22.40
2022-08-24T18:22:17.566Z,22.59
2022-08-24T18:24:44.723Z,22.49
2022-08-24T18:27:17.651Z,22.48
2022-08-24T18:29:46.390Z,22.51
2022-08-24T18:32:13.451Z,22.50
2022-08-24T18:34:43.065Z,22.58
2022-08-24T18:37:09.688Z,22.39
2022-08-24T18:39:36.648Z,22.27
2022-08-24T18:42:08.799Z,22.54
2022-08-24T18:44:37.008Z,22.63
2022-08-24T18:47:03.851Z,22.72
2022-08-24T18:49:30.445Z,22.66
2022-08-24T18:51:58.093Z,22.72
2022-08-24T18:54:37.844Z,22.76
2022-08-24T18:57:07.021Z,22.87
2022-08-24T18:59:35.407Z,22.94
2022-08-24T19:02:32.001Z,22.95
2022-08-24T19:05:01.256Z,22.90
2022-08-24T19:07:30.274Z,22.84
2022-08-24T19:09:57.103Z,22.83
2022-08-24T19:12:24.173Z,22.76
2022-08-24T19:14:56.799Z,22.71
2022-08-24T19:17:23.694Z,22.67
2022-08-24T19:19:50.337Z,22.58
2022-08-24T19:22:17.401Z,22.53
2022-08-24T19:24:45.026Z,22.47
2022-08-24T19:27:12.016Z,22.50
2022-08-24T19:29:55.266Z,22.61
2022-08-24T19:32:25.732Z,22.65
2022-08-24T19:34:55.880Z,22.58
2022-08-24T19:37:25.526Z,22.48
2022-08-24T19:39:53.062Z,22.44
2022-08-24T19:42:20.977Z,22.34
2022-08-24T19:45:06.831Z,22.26
2022-08-24T19:47:34.486Z,22.33
2022-08-24T19:50:03.821Z,22.32
2022-08-24T19:52:32.565Z,22.22
2022-08-24T19:54:59.409Z,22.23
2022-08-24T19:57:42.603Z,22.22
2022-08-24T20:00:18.010Z,22.21
2022-08-24T20:02:49.685Z,22.18
2022-08-24T20:05:18.689Z,22.26
2022-08-24T20:07:46.435Z,22.20
2022-08-24T20:10:14.920Z,22.11
2022-08-24T20:12:42.100Z,22.14
2022-08-24T20:15:09.205Z,22.03
2022-08-24T20:17:36.669Z,22.05
2022-08-24T20:20:06.344Z,22.05
2022-08-24T20:22:33.217Z,21.99
2022-08-24T20:24:59.964Z,21.99
2022-08-24T20:27:27.893Z,22.01
2022-08-24T20:29:55.364Z,22.00
2022-08-24T20:32:22.848Z,21.94
2022-08-24T20:34:50.000Z,21.79
2022-08-24T20:37:27.069Z,21.76
2022-08-24T20:39:58.000Z,21.76
2022-08-24T20:42:26.987Z,21.70
2022-08-24T20:44:54.799Z,21.69
2022-08-24T20:47:22.416Z,21.72
2022-08-24T20:49:51.462Z,21.76
2022-08-24T20:52:18.377Z,21.87
2022-08-24T20:54:45.162Z,21.94
2022-08-24T20:57:16.784Z,21.90
2022-08-24T20:59:43.617Z,21.83
2022-08-24T21:02:10.320Z,21.76
2022-08-24T21:04:37.627Z,21.70
2022-08-24T21:07:08.330Z,21.60
2022-08-24T21:09:34.940Z,21.55
2022-08-24T21:12:01.535Z,21.63
2022-08-24T21:14:28.344Z,21.66
2022-08-24T21:16:57.236Z,21.59
2022-08-24T21:19:23.934Z,21.53
2022-08-24T21:21:51.136Z,21.48
2022-08-24T21:24:18.132Z,21.52
2022-08-24T21:26:45.086Z,21.51
2022-08-24T21:29:11.711Z,21.52
2022-08-24T21:31:38.901Z,21.53
2022-08-24T21:34:32.016Z,21.55
2022-08-24T21:36:58.641Z,21.51
2022-08-24T21:39:26.627Z,21.52
2022-08-24T21:41:54.689Z,21.55
2022-08-24T21:44:21.948Z,21.53
2022-08-24T21:46:53.282Z,21.48
2022-08-24T21:49:20.730Z,21.48
2022-08-24T21:51:47.441Z,21.51
2022-08-24T21:54:14.206Z,21.52
2022-08-24T21:56:40.951Z,21.46
2022-08-24T21:59:07.597Z,21.46
2022-08-24T22:01:34.513Z,21.47
2022-08-24T22:04:01.589Z,21.45
2022-08-24T22:06:31.606Z,21.48
2022-08-24T22:08:59.746Z,21.43
2022-08-24T22:11:26.461Z,21.36
2022-08-24T22:13:53.939Z,21.31
2022-08-24T22:16:21.900Z,21.29
2022-08-24T22:18:49.297Z,21.27
2022-08-24T22:21:19.564Z,21.28
2022-08-24T22:23:46.356Z,21.22
2022-08-24T22:26:13.056Z,21.19
2022-08-24T22:28:41.522Z,21.15
2022-08-24T22:31:17.214Z,21.13
2022-08-24T22:33:44.162Z,21.08
2022-08-24T22:36:11.481Z,21.08
2022-08-24T22:38:39.259Z,21.06
2022-08-24T22:41:06.726Z,21.03
2022-08-24T22:43:51.660Z,20.98
2022-08-24T22:46:18.694Z,20.99
2022-08-24T22:48:45.494Z,20.98
2022-08-24T22:51:12.887Z,20.95
2022-08-24T22:53:40.528Z,20.93
2022-08-24T22:56:25.675Z,20.95
2022-08-24T22:58:52.735Z,20.92
2022-08-24T23:01:26.490Z,20.92
2022-08-24T23:03:54.302Z,20.83
2022-08-24T23:06:21.995Z,20.81
2022-08-24T23:08:48.919Z,20.78
2022-08-24T23:11:15.975Z,20.72
2022-08-24T23:13:42.750Z,20.69
2022-08-24T23:16:12.294Z,20.69
2022-08-24T23:19:17.664Z,20.69
2022-08-24T23:21:44.768Z,20.63
2022-08-24T23:24:12.254Z,20.50
2022-08-24T23:26:40.147Z,20.48
2022-08-24T23:29:08.998Z,20.52
2022-08-24T23:31:36.883Z,20.47
2022-08-24T23:34:04.005Z,20.49
2022-08-24T23:36:30.753Z,20.54
2022-08-24T23:38:59.452Z,20.54
2022-08-24T23:41:29.946Z,20.55
2022-08-24T23:43:59.412Z,20.54
2022-08-24T23:46:26.890Z,20.53
2022-08-24T23:48:55.555Z,20.54
2022-08-24T23:51:23.922Z,20.50
2022-08-24T23:53:52.012Z,20.51
2022-08-24T23:56:30.814Z,20.50
2022-08-24T23:59:01.369Z,20.49
